In Rescue
 
Open Full Screen Window  High Contrast Mode
Wind Gusting 00 knots
05
March 31, 2020 2:23 PM CDT
Weather Information
Wind Direction
  060 °
Wind Speed
  05 kt (6 mph)
Wind Gust
  00 kt (0 mph)
Altimeter
30.07 in
Visibility
---
Temperature
11° C
52° F
Dewpoint
-01° C
30° F
Humidity
44%
1hr Rain Fall
00.00 in.
24hr Rain Fall
00.00 in.
Sky Condition
Clear

METAR KACQ 311923Z AUTO 06005KT CLR 11/M01 A3007 RMK AO2 PWINO

FAA Disclaimer: The data displayed is for advisory purposes only and is not to be used for flight planning or operations.